createdAt,value
2018-03-26T00:01:09.169Z,8.30
2018-03-26T00:06:14.115Z,8.30
2018-03-26T00:11:19.222Z,8.40
2018-03-26T00:16:23.426Z,8.40
2018-03-26T00:21:27.800Z,8.40
2018-03-26T00:26:32.174Z,8.40
2018-03-26T00:31:36.844Z,8.40
2018-03-26T00:36:41.260Z,8.40
2018-03-26T00:41:46.021Z,8.30
2018-03-26T00:46:49.643Z,8.20
2018-03-26T00:51:54.500Z,8.30
2018-03-26T00:56:59.233Z,8.30
2018-03-26T01:02:03.625Z,8.20
2018-03-26T01:07:07.392Z,8.00
2018-03-26T01:12:12.424Z,7.90
2018-03-26T01:17:17.915Z,7.70
2018-03-26T01:22:22.326Z,7.70
2018-03-26T01:27:27.109Z,7.70
2018-03-26T01:32:32.200Z,7.80
2018-03-26T01:37:37.114Z,8.00
2018-03-26T01:42:41.305Z,8.00
2018-03-26T01:47:45.645Z,8.10
2018-03-26T01:52:50.126Z,8.10
2018-03-26T01:57:55.854Z,8.20
2018-03-26T02:03:01.000Z,8.10
2018-03-26T02:08:05.721Z,8.30
2018-03-26T02:13:10.171Z,8.20
2018-03-26T02:18:15.401Z,8.10
2018-03-26T02:23:19.717Z,8.10
2018-03-26T02:28:24.049Z,8.00
2018-03-26T02:33:28.434Z,7.90
2018-03-26T02:38:32.184Z,8.00
2018-03-26T02:43:36.357Z,8.00
2018-03-26T02:48:40.954Z,8.00
2018-03-26T02:53:46.574Z,8.00
2018-03-26T02:58:51.398Z,7.90
2018-03-26T03:03:55.114Z,8.00
2018-03-26T03:08:59.878Z,8.00
2018-03-26T03:14:03.086Z,8.00
2018-03-26T03:19:07.393Z,8.00
2018-03-26T03:24:11.465Z,8.00
2018-03-26T03:29:14.538Z,8.00
2018-03-26T03:34:18.928Z,7.90
2018-03-26T03:39:23.817Z,7.80
2018-03-26T03:44:28.391Z,7.90
2018-03-26T03:49:32.452Z,7.90
2018-03-26T03:54:36.569Z,8.00
2018-03-26T03:59:40.222Z,8.00
2018-03-26T04:04:43.621Z,7.90
2018-03-26T04:09:47.706Z,7.60
2018-03-26T04:14:53.046Z,7.40
2018-03-26T04:19:57.784Z,7.40
2018-03-26T04:25:02.677Z,7.50
2018-03-26T04:30:07.768Z,7.40
2018-03-26T04:35:11.896Z,7.50
2018-03-26T04:40:16.100Z,7.60
2018-03-26T04:45:20.040Z,7.70
2018-03-26T04:50:23.851Z,7.70
2018-03-26T04:55:28.476Z,7.60
2018-03-26T05:00:32.787Z,7.70
2018-03-26T05:05:38.711Z,7.50
2018-03-26T05:10:43.669Z,7.50
2018-03-26T05:15:48.498Z,7.60
2018-03-26T05:20:53.561Z,7.60
2018-03-26T05:25:58.359Z,7.60
2018-03-26T05:31:02.453Z,7.60
2018-03-26T05:36:04.052Z,7.70
2018-03-26T05:41:05.580Z,7.60
2018-03-26T05:46:07.133Z,7.60
2018-03-26T05:51:09.396Z,7.60
2018-03-26T05:56:11.052Z,7.60
2018-03-26T06:01:12.649Z,7.80
2018-03-26T06:06:14.196Z,7.80
2018-03-26T06:11:15.766Z,7.90
2018-03-26T06:16:17.333Z,8.00
2018-03-26T06:21:18.836Z,8.10
2018-03-26T06:26:21.139Z,7.80
2018-03-26T06:31:22.700Z,7.80
2018-03-26T06:36:27.233Z,7.90
2018-03-26T06:41:29.552Z,7.90
2018-03-26T06:46:31.050Z,7.80
2018-03-26T06:51:32.589Z,8.00
2018-03-26T06:56:34.340Z,8.00
2018-03-26T07:01:35.930Z,8.00
2018-03-26T07:06:37.542Z,8.00
2018-03-26T07:11:39.833Z,8.00
2018-03-26T07:16:41.402Z,7.90
2018-03-26T07:21:42.945Z,8.10
2018-03-26T07:26:44.524Z,8.10
2018-03-26T07:31:46.071Z,8.10
2018-03-26T07:36:47.659Z,8.20
2018-03-26T07:41:49.169Z,8.20
2018-03-26T07:46:50.688Z,8.30
2018-03-26T07:51:52.438Z,8.40
2018-03-26T07:56:54.011Z,8.50
2018-03-26T08:01:55.727Z,8.70
2018-03-26T08:06:58.029Z,8.80
2018-03-26T08:11:59.533Z,8.70
2018-03-26T08:17:01.147Z,8.80
2018-03-26T08:22:02.835Z,8.70
2018-03-26T08:27:05.146Z,8.80
2018-03-26T08:32:06.790Z,8.70
2018-03-26T08:37:09.056Z,8.80
2018-03-26T08:42:10.627Z,8.70
2018-03-26T08:47:12.085Z,8.80
2018-03-26T08:52:13.627Z,8.90
2018-03-26T08:57:15.213Z,9.00
2018-03-26T09:02:20.841Z,9.10
2018-03-26T09:07:26.892Z,9.10
2018-03-26T09:12:33.487Z,9.20
2018-03-26T09:17:43.369Z,9.10
2018-03-26T09:22:50.873Z,9.20
2018-03-26T09:28:03.344Z,9.30
2018-03-26T09:33:11.601Z,9.20
2018-03-26T09:38:18.343Z,9.20
2018-03-26T09:43:24.648Z,9.30
2018-03-26T09:48:31.466Z,9.30
2018-03-26T09:53:37.176Z,9.20
2018-03-26T09:58:43.373Z,9.20
2018-03-26T10:03:48.306Z,9.30
2018-03-26T10:08:55.917Z,9.20
2018-03-26T10:14:01.385Z,9.20
2018-03-26T10:19:08.477Z,8.90
2018-03-26T10:24:15.114Z,8.80
2018-03-26T10:29:19.836Z,8.80
2018-03-26T10:34:30.890Z,8.80
2018-03-26T10:39:35.660Z,8.70
2018-03-26T10:44:43.772Z,8.60
2018-03-26T10:49:47.158Z,8.50
2018-03-26T10:54:51.694Z,8.60
2018-03-26T10:59:57.597Z,8.50
2018-03-26T11:05:04.395Z,8.70
2018-03-26T11:10:08.400Z,8.70
2018-03-26T11:15:13.032Z,8.70
2018-03-26T11:20:16.160Z,8.80
2018-03-26T11:25:21.044Z,9.20
2018-03-26T11:30:26.819Z,10.00
2018-03-26T11:35:28.484Z,10.00
2018-03-26T11:40:33.095Z,10.10
2018-03-26T11:45:37.830Z,10.30
2018-03-26T11:50:41.441Z,11.20
2018-03-26T11:55:46.727Z,11.10
2018-03-26T12:00:56.738Z,11.70
2018-03-26T12:06:03.134Z,12.30
2018-03-26T12:11:09.862Z,12.80
2018-03-26T12:16:11.564Z,13.20
2018-03-26T12:21:16.252Z,13.50
2018-03-26T12:26:22.907Z,13.80
2018-03-26T12:31:27.614Z,13.50
2018-03-26T12:36:29.389Z,13.80
2018-03-26T12:41:30.918Z,13.60
2018-03-26T12:46:46.530Z,13.40
2018-03-26T12:52:07.198Z,12.60
2018-03-26T12:57:27.106Z,12.60
2018-03-26T13:02:29.897Z,12.00
2018-03-26T13:07:31.440Z,11.40
2018-03-26T13:12:33.025Z,11.40
2018-03-26T13:17:34.549Z,12.00
2018-03-26T13:22:36.890Z,12.80
2018-03-26T13:27:38.473Z,12.80
2018-03-26T13:32:40.009Z,12.80
2018-03-26T13:37:42.385Z,12.80
2018-03-26T13:42:43.932Z,12.60
2018-03-26T13:47:45.503Z,12.50
2018-03-26T13:52:47.005Z,12.30
2018-03-26T13:57:49.052Z,12.30
2018-03-26T14:02:50.613Z,12.20
2018-03-26T14:07:52.890Z,12.50
2018-03-26T14:13:13.680Z,12.70
2018-03-26T14:18:15.253Z,12.60
2018-03-26T14:23:16.789Z,12.90
2018-03-26T14:28:18.388Z,12.90
2018-03-26T14:33:19.913Z,12.80
2018-03-26T14:38:21.569Z,12.60
2018-03-26T14:43:23.155Z,12.50
2018-03-26T14:48:24.708Z,12.40
2018-03-26T14:53:26.216Z,12.10
2018-03-26T14:58:27.753Z,11.70
2018-03-26T15:03:29.306Z,11.60
2018-03-26T15:08:30.871Z,11.30
2018-03-26T15:13:32.500Z,11.50
2018-03-26T15:18:34.058Z,11.60
2018-03-26T15:23:35.642Z,11.60
2018-03-26T15:28:37.239Z,11.60
2018-03-26T15:33:39.526Z,11.80
2018-03-26T15:38:41.863Z,11.70
2018-03-26T15:43:43.563Z,11.60
2018-03-26T15:48:45.166Z,11.40
2018-03-26T15:53:46.676Z,11.30
2018-03-26T15:58:48.222Z,11.30
2018-03-26T16:03:49.804Z,11.30
2018-03-26T16:08:51.476Z,11.30
2018-03-26T16:13:53.017Z,11.30
2018-03-26T16:18:54.568Z,11.30
2018-03-26T16:23:56.842Z,11.20
2018-03-26T16:28:59.140Z,11.20
2018-03-26T16:34:01.436Z,11.20
2018-03-26T16:39:03.028Z,11.10
2018-03-26T16:44:04.607Z,11.10
2018-03-26T16:49:06.145Z,11.20
2018-03-26T16:54:07.903Z,11.20
2018-03-26T16:59:10.288Z,10.60
2018-03-26T17:04:11.878Z,10.60
2018-03-26T17:09:13.513Z,10.30
2018-03-26T17:14:15.081Z,10.10
2018-03-26T17:19:16.633Z,10.00
2018-03-26T17:24:18.193Z,9.90
2018-03-26T17:29:19.767Z,9.90
2018-03-26T17:34:21.389Z,9.90
2018-03-26T17:39:22.962Z,9.80
2018-03-26T17:44:24.506Z,9.70
2018-03-26T17:49:26.831Z,9.60
2018-03-26T17:54:28.357Z,9.50
2018-03-26T17:59:30.737Z,9.40
2018-03-26T18:04:33.050Z,9.30
2018-03-26T18:09:34.618Z,9.20
2018-03-26T18:14:36.138Z,9.20
2018-03-26T18:19:37.693Z,9.20
2018-03-26T18:24:39.305Z,9.30
2018-03-26T18:29:41.611Z,9.30
2018-03-26T18:34:43.173Z,9.30
2018-03-26T18:39:45.469Z,9.40
2018-03-26T18:44:47.025Z,9.30
2018-03-26T18:49:48.623Z,9.50
2018-03-26T18:54:50.205Z,9.50
2018-03-26T18:59:51.749Z,9.50
2018-03-26T19:04:53.585Z,9.50
2018-03-26T19:09:55.133Z,9.40
2018-03-26T19:14:57.511Z,9.40
2018-03-26T19:19:59.068Z,9.40
2018-03-26T19:25:00.676Z,9.40
2018-03-26T19:30:02.263Z,9.40
2018-03-26T19:35:03.792Z,9.40
2018-03-26T19:40:05.348Z,9.40
2018-03-26T19:45:06.991Z,9.30
2018-03-26T19:50:08.555Z,9.20
2018-03-26T19:55:10.039Z,9.10
2018-03-26T20:00:11.566Z,9.00
2018-03-26T20:05:13.976Z,8.90
2018-03-26T20:10:15.547Z,8.90
2018-03-26T20:15:24.252Z,8.90
2018-03-26T20:20:32.719Z,8.80
2018-03-26T20:25:34.312Z,8.60
2018-03-26T20:30:36.009Z,8.50
2018-03-26T20:35:37.598Z,8.30
2018-03-26T20:40:40.056Z,8.00
2018-03-26T20:45:41.760Z,8.00
2018-03-26T20:50:44.103Z,7.70
2018-03-26T20:55:45.713Z,7.60
2018-03-26T21:00:48.071Z,7.40
2018-03-26T21:05:49.844Z,7.30
2018-03-26T21:10:51.433Z,7.20
2018-03-26T21:15:53.000Z,7.10
2018-03-26T21:20:54.505Z,6.90
2018-03-26T21:25:56.217Z,6.90
2018-03-26T21:30:57.779Z,6.80
2018-03-26T21:35:59.357Z,6.80
2018-03-26T21:41:00.958Z,6.60
2018-03-26T21:46:03.250Z,6.40
2018-03-26T21:51:05.637Z,6.20
2018-03-26T21:56:07.117Z,6.10
2018-03-26T22:01:08.660Z,6.00
2018-03-26T22:06:10.882Z,5.90
2018-03-26T22:11:12.402Z,5.80
2018-03-26T22:16:14.640Z,5.90
2018-03-26T22:21:16.131Z,5.90
2018-03-26T22:26:17.634Z,6.10
2018-03-26T22:31:19.937Z,5.90
2018-03-26T22:36:21.409Z,5.80
2018-03-26T22:41:22.946Z,5.50
2018-03-26T22:46:25.413Z,5.10
2018-03-26T22:51:26.930Z,5.10
2018-03-26T22:56:28.444Z,5.00
2018-03-26T23:01:30.074Z,5.00
2018-03-26T23:06:31.577Z,4.80
2018-03-26T23:11:33.081Z,4.80
2018-03-26T23:16:35.356Z,4.60
2018-03-26T23:21:37.639Z,4.40
2018-03-26T23:26:39.922Z,4.30
2018-03-26T23:31:41.461Z,4.20
2018-03-26T23:36:43.041Z,4.30
2018-03-26T23:41:44.733Z,4.30
2018-03-26T23:46:47.072Z,4.30
2018-03-26T23:51:48.607Z,4.20
2018-03-26T23:56:50.254Z,4.50
